sensor_id;sensor_type;location;lat;lon;timestamp;temperature;humidity
10042;DHT22;5061;49.068;12.058;2023-07-02T00:00:46;18.30;99.90
10042;DHT22;5061;49.068;12.058;2023-07-02T00:04:07;18.20;99.90
10042;DHT22;5061;49.068;12.058;2023-07-02T00:07:30;18.20;99.90
10042;DHT22;5061;49.068;12.058;2023-07-02T00:10:51;18.20;99.90
10042;DHT22;5061;49.068;12.058;2023-07-02T00:14:13;18.20;99.90
10042;DHT22;5061;49.068;12.058;2023-07-02T00:17:34;18.20;99.90
10042;DHT22;5061;49.068;12.058;2023-07-02T00:20:54;18.10;99.90
10042;DHT22;5061;49.068;12.058;2023-07-02T00:24:15;18.10;99.90
10042;DHT22;5061;49.068;12.058;2023-07-02T00:27:36;18.10;99.90
10042;DHT22;5061;49.068;12.058;2023-07-02T00:30:58;18.10;99.90
10042;DHT22;5061;49.068;12.058;2023-07-02T00:34:21;18.10;99.90
10042;DHT22;5061;49.068;12.058;2023-07-02T00:37:42;18.20;99.90
10042;DHT22;5061;49.068;12.058;2023-07-02T00:41:02;18.10;99.90
10042;DHT22;5061;49.068;12.058;2023-07-02T00:44:23;18.10;99.90
10042;DHT22;5061;49.068;12.058;2023-07-02T00:47:43;18.00;99.90
10042;DHT22;5061;49.068;12.058;2023-07-02T00:51:05;18.00;99.90
10042;DHT22;5061;49.068;12.058;2023-07-02T00:54:30;18.00;99.90
10042;DHT22;5061;49.068;12.058;2023-07-02T00:57:51;18.00;99.90
10042;DHT22;5061;49.068;12.058;2023-07-02T01:01:12;18.00;99.90
10042;DHT22;5061;49.068;12.058;2023-07-02T01:04:33;17.90;99.90
10042;DHT22;5061;49.068;12.058;2023-07-02T01:07:53;17.90;99.90
10042;DHT22;5061;49.068;12.058;2023-07-02T01:11:14;17.90;99.90
10042;DHT22;5061;49.068;12.058;2023-07-02T01:14:38;17.80;99.90
10042;DHT22;5061;49.068;12.058;2023-07-02T01:17:59;17.80;99.90
10042;DHT22;5061;49.068;12.058;2023-07-02T01:21:23;17.80;99.90
10042;DHT22;5061;49.068;12.058;2023-07-02T01:24:44;17.80;99.90
10042;DHT22;5061;49.068;12.058;2023-07-02T01:28:07;17.80;99.90
10042;DHT22;5061;49.068;12.058;2023-07-02T01:31:27;17.70;99.90
10042;DHT22;5061;49.068;12.058;2023-07-02T01:34:48;17.70;99.90
10042;DHT22;5061;49.068;12.058;2023-07-02T01:38:09;17.70;99.90
10042;DHT22;5061;49.068;12.058;2023-07-02T01:41:29;17.60;99.90
10042;DHT22;5061;49.068;12.058;2023-07-02T01:44:50;17.60;99.90
10042;DHT22;5061;49.068;12.058;2023-07-02T01:48:11;17.50;99.90
10042;DHT22;5061;49.068;12.058;2023-07-02T01:51:33;17.50;99.90
10042;DHT22;5061;49.068;12.058;2023-07-02T01:54:53;17.50;99.90
10042;DHT22;5061;49.068;12.058;2023-07-02T01:58:14;17.50;99.90
10042;DHT22;5061;49.068;12.058;2023-07-02T02:01:34;17.50;99.90
10042;DHT22;5061;49.068;12.058;2023-07-02T02:04:55;17.50;99.90
10042;DHT22;5061;49.068;12.058;2023-07-02T02:08:16;17.50;99.90
10042;DHT22;5061;49.068;12.058;2023-07-02T02:11:39;17.50;99.90
10042;DHT22;5061;49.068;12.058;2023-07-02T02:15:00;17.50;99.90
10042;DHT22;5061;49.068;12.058;2023-07-02T02:18:21;17.50;99.90
10042;DHT22;5061;49.068;12.058;2023-07-02T02:21:42;17.50;99.90
10042;DHT22;5061;49.068;12.058;2023-07-02T02:25:03;17.50;99.90
10042;DHT22;5061;49.068;12.058;2023-07-02T02:28:24;17.50;99.90
10042;DHT22;5061;49.068;12.058;2023-07-02T02:31:44;17.50;99.90
10042;DHT22;5061;49.068;12.058;2023-07-02T02:35:05;17.50;99.90
10042;DHT22;5061;49.068;12.058;2023-07-02T02:38:26;17.50;99.90
10042;DHT22;5061;49.068;12.058;2023-07-02T02:41:46;17.40;99.90
10042;DHT22;5061;49.068;12.058;2023-07-02T02:45:07;17.40;99.90
10042;DHT22;5061;49.068;12.058;2023-07-02T02:48:28;17.40;99.90
10042;DHT22;5061;49.068;12.058;2023-07-02T02:51:49;17.40;99.90
10042;DHT22;5061;49.068;12.058;2023-07-02T02:55:10;17.40;99.90
10042;DHT22;5061;49.068;12.058;2023-07-02T02:58:33;17.30;99.90
10042;DHT22;5061;49.068;12.058;2023-07-02T03:01:54;17.30;99.90
10042;DHT22;5061;49.068;12.058;2023-07-02T03:05:14;17.30;99.90
10042;DHT22;5061;49.068;12.058;2023-07-02T03:08:36;17.30;99.90
10042;DHT22;5061;49.068;12.058;2023-07-02T03:11:56;17.30;99.90
10042;DHT22;5061;49.068;12.058;2023-07-02T03:15:17;17.30;99.90
10042;DHT22;5061;49.068;12.058;2023-07-02T03:18:38;17.30;99.90
10042;DHT22;5061;49.068;12.058;2023-07-02T03:21:59;17.30;99.90
10042;DHT22;5061;49.068;12.058;2023-07-02T03:25:19;17.30;99.90
10042;DHT22;5061;49.068;12.058;2023-07-02T03:28:40;17.30;99.90
10042;DHT22;5061;49.068;12.058;2023-07-02T03:32:01;17.30;99.90
10042;DHT22;5061;49.068;12.058;2023-07-02T03:35:22;17.20;99.90
10042;DHT22;5061;49.068;12.058;2023-07-02T03:38:43;17.20;99.90
10042;DHT22;5061;49.068;12.058;2023-07-02T03:42:05;17.20;99.90
10042;DHT22;5061;49.068;12.058;2023-07-02T03:45:26;17.10;99.90
10042;DHT22;5061;49.068;12.058;2023-07-02T03:48:46;17.10;99.90
10042;DHT22;5061;49.068;12.058;2023-07-02T03:52:07;17.10;99.90
10042;DHT22;5061;49.068;12.058;2023-07-02T03:55:27;17.00;99.90
10042;DHT22;5061;49.068;12.058;2023-07-02T03:58:48;17.00;99.90
10042;DHT22;5061;49.068;12.058;2023-07-02T04:02:09;17.00;99.90
10042;DHT22;5061;49.068;12.058;2023-07-02T04:05:29;16.90;99.90
10042;DHT22;5061;49.068;12.058;2023-07-02T04:08:50;16.90;99.90
10042;DHT22;5061;49.068;12.058;2023-07-02T04:12:10;16.80;99.90
10042;DHT22;5061;49.068;12.058;2023-07-02T04:15:31;16.80;99.90
10042;DHT22;5061;49.068;12.058;2023-07-02T04:18:52;16.80;99.90
10042;DHT22;5061;49.068;12.058;2023-07-02T04:22:13;16.80;99.90
10042;DHT22;5061;49.068;12.058;2023-07-02T04:25:33;16.70;99.90
10042;DHT22;5061;49.068;12.058;2023-07-02T04:28:57;16.70;99.90
10042;DHT22;5061;49.068;12.058;2023-07-02T04:32:20;16.70;99.90
10042;DHT22;5061;49.068;12.058;2023-07-02T04:35:47;16.80;99.90
10042;DHT22;5061;49.068;12.058;2023-07-02T04:39:08;16.80;99.90
10042;DHT22;5061;49.068;12.058;2023-07-02T04:42:30;16.80;99.90
10042;DHT22;5061;49.068;12.058;2023-07-02T04:45:55;16.80;99.90
10042;DHT22;5061;49.068;12.058;2023-07-02T04:49:16;16.80;99.90
10042;DHT22;5061;49.068;12.058;2023-07-02T04:52:38;16.80;99.90
10042;DHT22;5061;49.068;12.058;2023-07-02T04:55:59;16.80;99.90
10042;DHT22;5061;49.068;12.058;2023-07-02T04:59:21;16.90;99.90
10042;DHT22;5061;49.068;12.058;2023-07-02T05:02:41;17.00;99.90
10042;DHT22;5061;49.068;12.058;2023-07-02T05:06:02;17.00;99.90
10042;DHT22;5061;49.068;12.058;2023-07-02T05:09:22;17.10;99.90
10042;DHT22;5061;49.068;12.058;2023-07-02T05:12:43;17.20;99.90
10042;DHT22;5061;49.068;12.058;2023-07-02T05:16:04;17.20;99.90
10042;DHT22;5061;49.068;12.058;2023-07-02T05:19:24;17.30;99.90
10042;DHT22;5061;49.068;12.058;2023-07-02T05:22:45;17.30;99.90
10042;DHT22;5061;49.068;12.058;2023-07-02T05:26:05;17.20;99.90
10042;DHT22;5061;49.068;12.058;2023-07-02T05:29:26;17.30;99.90
10042;DHT22;5061;49.068;12.058;2023-07-02T05:32:48;17.30;99.90
10042;DHT22;5061;49.068;12.058;2023-07-02T05:36:08;17.30;99.90
10042;DHT22;5061;49.068;12.058;2023-07-02T05:39:29;17.40;99.90
10042;DHT22;5061;49.068;12.058;2023-07-02T05:42:50;17.40;99.90
10042;DHT22;5061;49.068;12.058;2023-07-02T05:46:11;17.50;99.90
10042;DHT22;5061;49.068;12.058;2023-07-02T05:49:34;17.50;99.90
10042;DHT22;5061;49.068;12.058;2023-07-02T05:52:54;17.60;99.90
10042;DHT22;5061;49.068;12.058;2023-07-02T05:56:15;17.50;99.90
10042;DHT22;5061;49.068;12.058;2023-07-02T05:59:37;17.50;99.90
10042;DHT22;5061;49.068;12.058;2023-07-02T06:02:58;17.50;99.90
10042;DHT22;5061;49.068;12.058;2023-07-02T06:06:19;17.50;99.90
10042;DHT22;5061;49.068;12.058;2023-07-02T06:09:39;17.50;99.90
10042;DHT22;5061;49.068;12.058;2023-07-02T06:13:00;17.50;99.90
10042;DHT22;5061;49.068;12.058;2023-07-02T06:16:20;17.60;99.90
10042;DHT22;5061;49.068;12.058;2023-07-02T06:19:41;17.60;99.90
10042;DHT22;5061;49.068;12.058;2023-07-02T06:23:02;17.60;99.90
10042;DHT22;5061;49.068;12.058;2023-07-02T06:26:22;17.60;99.90
10042;DHT22;5061;49.068;12.058;2023-07-02T06:29:43;17.60;99.90
10042;DHT22;5061;49.068;12.058;2023-07-02T06:33:03;17.60;99.90
10042;DHT22;5061;49.068;12.058;2023-07-02T06:36:24;17.60;99.90
10042;DHT22;5061;49.068;12.058;2023-07-02T06:39:44;17.60;99.90
10042;DHT22;5061;49.068;12.058;2023-07-02T06:43:05;17.50;99.90
10042;DHT22;5061;49.068;12.058;2023-07-02T06:46:26;17.50;99.90
10042;DHT22;5061;49.068;12.058;2023-07-02T06:49:46;17.50;99.90
10042;DHT22;5061;49.068;12.058;2023-07-02T06:53:07;17.50;99.90
10042;DHT22;5061;49.068;12.058;2023-07-02T06:56:27;17.50;99.90
10042;DHT22;5061;49.068;12.058;2023-07-02T06:59:48;17.40;99.90
10042;DHT22;5061;49.068;12.058;2023-07-02T07:03:08;17.50;99.90
10042;DHT22;5061;49.068;12.058;2023-07-02T07:06:29;17.50;99.90
10042;DHT22;5061;49.068;12.058;2023-07-02T07:09:50;17.50;99.90
10042;DHT22;5061;49.068;12.058;2023-07-02T07:13:11;17.40;99.90
10042;DHT22;5061;49.068;12.058;2023-07-02T07:16:31;17.50;99.90
10042;DHT22;5061;49.068;12.058;2023-07-02T07:19:52;17.50;99.90
10042;DHT22;5061;49.068;12.058;2023-07-02T07:23:13;17.50;99.90
10042;DHT22;5061;49.068;12.058;2023-07-02T07:26:34;17.50;99.90
10042;DHT22;5061;49.068;12.058;2023-07-02T07:29:55;17.50;99.90
10042;DHT22;5061;49.068;12.058;2023-07-02T07:33:15;17.50;99.90
10042;DHT22;5061;49.068;12.058;2023-07-02T07:39:59;17.70;99.90
10042;DHT22;5061;49.068;12.058;2023-07-02T07:43:19;17.70;99.90
10042;DHT22;5061;49.068;12.058;2023-07-02T07:46:40;17.80;99.90
10042;DHT22;5061;49.068;12.058;2023-07-02T07:50:01;17.80;99.90
10042;DHT22;5061;49.068;12.058;2023-07-02T07:53:22;17.90;99.90
10042;DHT22;5061;49.068;12.058;2023-07-02T07:56:42;17.90;99.90
10042;DHT22;5061;49.068;12.058;2023-07-02T08:00:04;18.00;99.90
10042;DHT22;5061;49.068;12.058;2023-07-02T08:03:26;18.10;99.30
10042;DHT22;5061;49.068;12.058;2023-07-02T08:06:46;18.10;99.30
10042;DHT22;5061;49.068;12.058;2023-07-02T08:10:07;18.20;99.00
10042;DHT22;5061;49.068;12.058;2023-07-02T08:13:28;18.20;98.70
10042;DHT22;5061;49.068;12.058;2023-07-02T08:16:49;18.30;98.70
10042;DHT22;5061;49.068;12.058;2023-07-02T08:20:10;18.30;98.80
10042;DHT22;5061;49.068;12.058;2023-07-02T08:23:30;18.40;98.50
10042;DHT22;5061;49.068;12.058;2023-07-02T08:26:51;18.40;98.30
10042;DHT22;5061;49.068;12.058;2023-07-02T08:30:12;18.50;98.60
10042;DHT22;5061;49.068;12.058;2023-07-02T08:33:32;18.50;98.00
10042;DHT22;5061;49.068;12.058;2023-07-02T08:36:53;18.60;98.10
10042;DHT22;5061;49.068;12.058;2023-07-02T08:40:18;18.60;97.60
10042;DHT22;5061;49.068;12.058;2023-07-02T08:43:39;18.60;97.40
10042;DHT22;5061;49.068;12.058;2023-07-02T08:47:00;18.60;97.10
10042;DHT22;5061;49.068;12.058;2023-07-02T08:50:22;18.60;97.00
10042;DHT22;5061;49.068;12.058;2023-07-02T08:53:42;18.70;96.80
10042;DHT22;5061;49.068;12.058;2023-07-02T08:57:03;18.70;96.60
10042;DHT22;5061;49.068;12.058;2023-07-02T09:00:26;18.80;96.80
10042;DHT22;5061;49.068;12.058;2023-07-02T09:03:46;19.00;96.50
10042;DHT22;5061;49.068;12.058;2023-07-02T09:07:09;19.10;96.40
10042;DHT22;5061;49.068;12.058;2023-07-02T09:10:30;19.10;96.20
10042;DHT22;5061;49.068;12.058;2023-07-02T09:13:52;19.20;96.00
10042;DHT22;5061;49.068;12.058;2023-07-02T09:17:19;19.20;95.80
10042;DHT22;5061;49.068;12.058;2023-07-02T09:20:39;19.30;96.10
10042;DHT22;5061;49.068;12.058;2023-07-02T09:24:00;19.40;95.60
10042;DHT22;5061;49.068;12.058;2023-07-02T09:27:21;19.50;95.50
10042;DHT22;5061;49.068;12.058;2023-07-02T09:30:56;19.50;94.80
10042;DHT22;5061;49.068;12.058;2023-07-02T09:34:17;19.60;94.90
10042;DHT22;5061;49.068;12.058;2023-07-02T09:37:38;19.60;95.00
10042;DHT22;5061;49.068;12.058;2023-07-02T09:41:02;19.60;94.70
10042;DHT22;5061;49.068;12.058;2023-07-02T09:44:33;19.60;94.50
10042;DHT22;5061;49.068;12.058;2023-07-02T09:47:57;19.50;94.20
10042;DHT22;5061;49.068;12.058;2023-07-02T09:51:18;19.40;94.10
10042;DHT22;5061;49.068;12.058;2023-07-02T09:54:39;19.50;94.30
10042;DHT22;5061;49.068;12.058;2023-07-02T09:57:59;19.70;93.90
10042;DHT22;5061;49.068;12.058;2023-07-02T10:01:26;19.80;93.40
10042;DHT22;5061;49.068;12.058;2023-07-02T10:04:50;20.10;93.60
10042;DHT22;5061;49.068;12.058;2023-07-02T10:08:16;20.30;93.50
10042;DHT22;5061;49.068;12.058;2023-07-02T10:11:41;20.50;93.40
10042;DHT22;5061;49.068;12.058;2023-07-02T10:15:02;20.40;91.70
10042;DHT22;5061;49.068;12.058;2023-07-02T10:18:26;20.40;91.80
10042;DHT22;5061;49.068;12.058;2023-07-02T10:22:00;20.60;91.00
10042;DHT22;5061;49.068;12.058;2023-07-02T10:25:29;20.60;90.80
10042;DHT22;5061;49.068;12.058;2023-07-02T10:29:19;20.70;90.40
10042;DHT22;5061;49.068;12.058;2023-07-02T10:32:47;20.90;90.30
10042;DHT22;5061;49.068;12.058;2023-07-02T10:36:20;20.90;90.30
10042;DHT22;5061;49.068;12.058;2023-07-02T10:39:41;21.10;90.10
10042;DHT22;5061;49.068;12.058;2023-07-02T10:43:02;21.30;89.90
10042;DHT22;5061;49.068;12.058;2023-07-02T10:46:23;21.50;88.80
10042;DHT22;5061;49.068;12.058;2023-07-02T10:49:43;21.70;87.80
10042;DHT22;5061;49.068;12.058;2023-07-02T10:53:04;21.80;87.40
10042;DHT22;5061;49.068;12.058;2023-07-02T10:56:28;22.00;87.60
10042;DHT22;5061;49.068;12.058;2023-07-02T10:59:49;22.10;86.20
10042;DHT22;5061;49.068;12.058;2023-07-02T11:03:23;22.20;84.50
10042;DHT22;5061;49.068;12.058;2023-07-02T11:06:43;22.30;83.70
10042;DHT22;5061;49.068;12.058;2023-07-02T11:10:05;22.30;83.30
10042;DHT22;5061;49.068;12.058;2023-07-02T11:13:26;22.20;83.20
10042;DHT22;5061;49.068;12.058;2023-07-02T11:16:46;22.20;82.70
10042;DHT22;5061;49.068;12.058;2023-07-02T11:20:14;22.10;82.30
10042;DHT22;5061;49.068;12.058;2023-07-02T11:23:36;22.10;80.60
10042;DHT22;5061;49.068;12.058;2023-07-02T11:26:57;22.10;79.10
10042;DHT22;5061;49.068;12.058;2023-07-02T11:33:59;22.10;80.70
10042;DHT22;5061;49.068;12.058;2023-07-02T11:37:20;22.10;80.10
10042;DHT22;5061;49.068;12.058;2023-07-02T11:40:41;22.20;78.90
10042;DHT22;5061;49.068;12.058;2023-07-02T11:44:01;22.30;79.20
10042;DHT22;5061;49.068;12.058;2023-07-02T11:47:22;22.20;79.40
10042;DHT22;5061;49.068;12.058;2023-07-02T11:50:43;22.10;77.70
10042;DHT22;5061;49.068;12.058;2023-07-02T11:54:04;22.10;78.90
10042;DHT22;5061;49.068;12.058;2023-07-02T11:57:24;22.20;78.90
10042;DHT22;5061;49.068;12.058;2023-07-02T12:00:45;22.30;78.30
10042;DHT22;5061;49.068;12.058;2023-07-02T12:04:06;22.30;78.40
10042;DHT22;5061;49.068;12.058;2023-07-02T12:07:28;22.20;76.80
10042;DHT22;5061;49.068;12.058;2023-07-02T12:10:48;22.10;77.00
10042;DHT22;5061;49.068;12.058;2023-07-02T12:14:09;22.00;77.30
10042;DHT22;5061;49.068;12.058;2023-07-02T12:17:29;21.90;77.10
10042;DHT22;5061;49.068;12.058;2023-07-02T12:20:50;21.80;77.00
10042;DHT22;5061;49.068;12.058;2023-07-02T12:24:10;21.90;77.90
10042;DHT22;5061;49.068;12.058;2023-07-02T12:27:31;22.10;77.90
10042;DHT22;5061;49.068;12.058;2023-07-02T12:30:52;22.20;77.90
10042;DHT22;5061;49.068;12.058;2023-07-02T12:34:12;22.40;77.40
10042;DHT22;5061;49.068;12.058;2023-07-02T12:37:33;22.60;76.90
10042;DHT22;5061;49.068;12.058;2023-07-02T12:40:53;22.80;76.80
10042;DHT22;5061;49.068;12.058;2023-07-02T12:44:14;22.90;76.10
10042;DHT22;5061;49.068;12.058;2023-07-02T12:47:35;23.10;75.50
10042;DHT22;5061;49.068;12.058;2023-07-02T12:50:57;23.40;75.80
10042;DHT22;5061;49.068;12.058;2023-07-02T12:54:17;23.70;76.40
10042;DHT22;5061;49.068;12.058;2023-07-02T12:57:38;24.10;76.60
10042;DHT22;5061;49.068;12.058;2023-07-02T13:00:59;24.40;73.80
10042;DHT22;5061;49.068;12.058;2023-07-02T13:04:19;24.50;73.80
10042;DHT22;5061;49.068;12.058;2023-07-02T13:07:40;24.60;73.00
10042;DHT22;5061;49.068;12.058;2023-07-02T13:11:01;24.80;71.10
10042;DHT22;5061;49.068;12.058;2023-07-02T13:14:21;24.80;71.30
10042;DHT22;5061;49.068;12.058;2023-07-02T13:17:42;24.90;69.40
10042;DHT22;5061;49.068;12.058;2023-07-02T13:21:04;24.90;69.70
10042;DHT22;5061;49.068;12.058;2023-07-02T13:24:24;25.00;68.90
10042;DHT22;5061;49.068;12.058;2023-07-02T13:27:45;25.10;68.70
10042;DHT22;5061;49.068;12.058;2023-07-02T13:31:06;25.20;68.50
10042;DHT22;5061;49.068;12.058;2023-07-02T13:34:28;25.20;67.70
10042;DHT22;5061;49.068;12.058;2023-07-02T13:37:49;25.20;67.40
10042;DHT22;5061;49.068;12.058;2023-07-02T13:41:09;25.10;68.80
10042;DHT22;5061;49.068;12.058;2023-07-02T13:48:03;25.20;67.40
10042;DHT22;5061;49.068;12.058;2023-07-02T13:51:26;25.10;66.50
10042;DHT22;5061;49.068;12.058;2023-07-02T13:54:47;25.10;66.30
10042;DHT22;5061;49.068;12.058;2023-07-02T13:58:08;25.10;65.40
10042;DHT22;5061;49.068;12.058;2023-07-02T14:01:29;25.10;65.50
10042;DHT22;5061;49.068;12.058;2023-07-02T14:04:50;25.10;66.00
10042;DHT22;5061;49.068;12.058;2023-07-02T14:08:11;25.20;65.50
10042;DHT22;5061;49.068;12.058;2023-07-02T14:11:34;25.10;66.30
10042;DHT22;5061;49.068;12.058;2023-07-02T14:14:55;25.10;65.80
10042;DHT22;5061;49.068;12.058;2023-07-02T14:18:17;25.30;65.80
10042;DHT22;5061;49.068;12.058;2023-07-02T14:21:40;25.40;64.20
10042;DHT22;5061;49.068;12.058;2023-07-02T14:25:05;25.30;62.80
10042;DHT22;5061;49.068;12.058;2023-07-02T14:28:28;25.00;63.50
10042;DHT22;5061;49.068;12.058;2023-07-02T14:31:51;24.90;63.50
10042;DHT22;5061;49.068;12.058;2023-07-02T14:35:12;25.00;62.90
10042;DHT22;5061;49.068;12.058;2023-07-02T14:38:34;25.00;63.20
10042;DHT22;5061;49.068;12.058;2023-07-02T14:41:55;25.00;62.80
10042;DHT22;5061;49.068;12.058;2023-07-02T14:45:16;25.10;63.40
10042;DHT22;5061;49.068;12.058;2023-07-02T14:48:37;25.20;62.80
10042;DHT22;5061;49.068;12.058;2023-07-02T14:51:57;25.30;63.40
10042;DHT22;5061;49.068;12.058;2023-07-02T14:55:18;25.30;62.50
10042;DHT22;5061;49.068;12.058;2023-07-02T14:58:38;25.30;61.80
10042;DHT22;5061;49.068;12.058;2023-07-02T15:01:59;25.30;60.80
10042;DHT22;5061;49.068;12.058;2023-07-02T15:05:20;25.20;61.20
10042;DHT22;5061;49.068;12.058;2023-07-02T15:08:40;25.10;61.70
10042;DHT22;5061;49.068;12.058;2023-07-02T15:12:01;25.10;62.30
10042;DHT22;5061;49.068;12.058;2023-07-02T15:15:22;25.20;60.60
10042;DHT22;5061;49.068;12.058;2023-07-02T15:18:43;25.30;60.40
10042;DHT22;5061;49.068;12.058;2023-07-02T15:22:03;25.30;61.50
10042;DHT22;5061;49.068;12.058;2023-07-02T15:25:24;25.20;60.30
10042;DHT22;5061;49.068;12.058;2023-07-02T15:28:45;25.10;60.50
10042;DHT22;5061;49.068;12.058;2023-07-02T15:32:05;25.10;61.00
10042;DHT22;5061;49.068;12.058;2023-07-02T15:35:26;25.10;59.90
10042;DHT22;5061;49.068;12.058;2023-07-02T15:38:48;25.00;60.30
10042;DHT22;5061;49.068;12.058;2023-07-02T15:42:08;25.00;61.00
10042;DHT22;5061;49.068;12.058;2023-07-02T15:45:29;25.10;61.60
10042;DHT22;5061;49.068;12.058;2023-07-02T15:48:49;25.10;60.40
10042;DHT22;5061;49.068;12.058;2023-07-02T15:52:11;25.10;59.90
10042;DHT22;5061;49.068;12.058;2023-07-02T15:55:34;25.10;59.50
10042;DHT22;5061;49.068;12.058;2023-07-02T15:58:55;25.10;59.50
10042;DHT22;5061;49.068;12.058;2023-07-02T16:02:16;25.00;59.90
10042;DHT22;5061;49.068;12.058;2023-07-02T16:05:37;24.90;60.30
10042;DHT22;5061;49.068;12.058;2023-07-02T16:09:01;24.90;60.40
10042;DHT22;5061;49.068;12.058;2023-07-02T16:12:22;24.90;60.90
10042;DHT22;5061;49.068;12.058;2023-07-02T16:15:43;24.90;60.90
10042;DHT22;5061;49.068;12.058;2023-07-02T16:19:03;24.90;59.80
10042;DHT22;5061;49.068;12.058;2023-07-02T16:22:24;24.80;60.00
10042;DHT22;5061;49.068;12.058;2023-07-02T16:25:53;24.60;60.10
10042;DHT22;5061;49.068;12.058;2023-07-02T16:29:18;24.50;60.10
10042;DHT22;5061;49.068;12.058;2023-07-02T16:32:41;24.50;60.60
10042;DHT22;5061;49.068;12.058;2023-07-02T16:36:07;24.50;59.90
10042;DHT22;5061;49.068;12.058;2023-07-02T16:39:28;24.40;59.70
10042;DHT22;5061;49.068;12.058;2023-07-02T16:42:49;24.30;59.70
10042;DHT22;5061;49.068;12.058;2023-07-02T16:46:10;24.20;60.20
10042;DHT22;5061;49.068;12.058;2023-07-02T16:49:31;24.10;60.40
10042;DHT22;5061;49.068;12.058;2023-07-02T16:52:51;24.10;60.60
10042;DHT22;5061;49.068;12.058;2023-07-02T16:56:12;23.90;60.50
10042;DHT22;5061;49.068;12.058;2023-07-02T16:59:33;23.90;60.90
10042;DHT22;5061;49.068;12.058;2023-07-02T17:03:00;23.90;61.30
10042;DHT22;5061;49.068;12.058;2023-07-02T17:06:20;23.80;60.90
10042;DHT22;5061;49.068;12.058;2023-07-02T17:09:41;23.80;60.90
10042;DHT22;5061;49.068;12.058;2023-07-02T17:13:05;23.70;60.70
10042;DHT22;5061;49.068;12.058;2023-07-02T17:16:26;23.60;60.80
10042;DHT22;5061;49.068;12.058;2023-07-02T17:19:49;23.50;60.70
10042;DHT22;5061;49.068;12.058;2023-07-02T17:23:10;23.40;61.10
10042;DHT22;5061;49.068;12.058;2023-07-02T17:26:31;23.40;61.60
10042;DHT22;5061;49.068;12.058;2023-07-02T17:29:56;23.40;61.90
10042;DHT22;5061;49.068;12.058;2023-07-02T17:33:17;23.30;61.80
10042;DHT22;5061;49.068;12.058;2023-07-02T17:36:37;23.30;61.50
10042;DHT22;5061;49.068;12.058;2023-07-02T17:39:59;23.20;61.70
10042;DHT22;5061;49.068;12.058;2023-07-02T17:43:22;23.10;61.60
10042;DHT22;5061;49.068;12.058;2023-07-02T17:46:43;23.10;61.70
10042;DHT22;5061;49.068;12.058;2023-07-02T17:50:04;23.00;61.80
10042;DHT22;5061;49.068;12.058;2023-07-02T17:53:28;22.90;61.90
10042;DHT22;5061;49.068;12.058;2023-07-02T17:56:53;22.80;61.70
10042;DHT22;5061;49.068;12.058;2023-07-02T18:00:16;22.80;62.10
10042;DHT22;5061;49.068;12.058;2023-07-02T18:03:37;22.70;62.20
10042;DHT22;5061;49.068;12.058;2023-07-02T18:10:25;22.60;62.30
10042;DHT22;5061;49.068;12.058;2023-07-02T18:13:46;22.50;62.10
10042;DHT22;5061;49.068;12.058;2023-07-02T18:17:07;22.40;62.10
10042;DHT22;5061;49.068;12.058;2023-07-02T18:20:28;22.30;62.20
10042;DHT22;5061;49.068;12.058;2023-07-02T18:23:49;22.30;62.50
10042;DHT22;5061;49.068;12.058;2023-07-02T18:27:14;22.20;62.40
10042;DHT22;5061;49.068;12.058;2023-07-02T18:30:34;22.20;62.60
10042;DHT22;5061;49.068;12.058;2023-07-02T18:33:57;22.10;62.70
10042;DHT22;5061;49.068;12.058;2023-07-02T18:37:17;22.00;62.90
10042;DHT22;5061;49.068;12.058;2023-07-02T18:40:38;21.90;63.10
10042;DHT22;5061;49.068;12.058;2023-07-02T18:43:59;21.90;63.40
10042;DHT22;5061;49.068;12.058;2023-07-02T18:47:19;21.80;63.50
10042;DHT22;5061;49.068;12.058;2023-07-02T18:50:41;21.70;63.50
10042;DHT22;5061;49.068;12.058;2023-07-02T18:54:02;21.60;63.60
10042;DHT22;5061;49.068;12.058;2023-07-02T18:57:22;21.60;63.80
10042;DHT22;5061;49.068;12.058;2023-07-02T19:00:43;21.50;64.00
10042;DHT22;5061;49.068;12.058;2023-07-02T19:04:04;21.50;64.30
10042;DHT22;5061;49.068;12.058;2023-07-02T19:07:26;21.40;64.40
10042;DHT22;5061;49.068;12.058;2023-07-02T19:10:58;21.30;64.50
10042;DHT22;5061;49.068;12.058;2023-07-02T19:14:19;21.20;64.60
10042;DHT22;5061;49.068;12.058;2023-07-02T19:17:40;21.10;64.70
10042;DHT22;5061;49.068;12.058;2023-07-02T19:21:00;21.00;64.70
10042;DHT22;5061;49.068;12.058;2023-07-02T19:24:21;21.00;65.60
10042;DHT22;5061;49.068;12.058;2023-07-02T19:27:42;20.90;65.10
10042;DHT22;5061;49.068;12.058;2023-07-02T19:31:03;20.80;65.20
10042;DHT22;5061;49.068;12.058;2023-07-02T19:34:24;20.70;65.30
10042;DHT22;5061;49.068;12.058;2023-07-02T19:37:45;20.70;65.60
10042;DHT22;5061;49.068;12.058;2023-07-02T19:41:05;20.60;65.70
10042;DHT22;5061;49.068;12.058;2023-07-02T19:44:26;20.50;65.80
10042;DHT22;5061;49.068;12.058;2023-07-02T19:47:47;20.50;66.10
10042;DHT22;5061;49.068;12.058;2023-07-02T19:51:08;20.40;66.30
10042;DHT22;5061;49.068;12.058;2023-07-02T19:54:28;20.30;66.50
10042;DHT22;5061;49.068;12.058;2023-07-02T19:57:49;20.20;66.60
10042;DHT22;5061;49.068;12.058;2023-07-02T20:01:11;20.20;66.80
10042;DHT22;5061;49.068;12.058;2023-07-02T20:04:32;20.10;67.00
10042;DHT22;5061;49.068;12.058;2023-07-02T20:07:53;20.00;67.00
10042;DHT22;5061;49.068;12.058;2023-07-02T20:11:14;20.00;67.20
10042;DHT22;5061;49.068;12.058;2023-07-02T20:14:35;19.90;67.30
10042;DHT22;5061;49.068;12.058;2023-07-02T20:17:56;19.80;67.50
10042;DHT22;5061;49.068;12.058;2023-07-02T20:21:16;19.70;67.80
10042;DHT22;5061;49.068;12.058;2023-07-02T20:24:37;19.60;68.10
10042;DHT22;5061;49.068;12.058;2023-07-02T20:27:57;19.50;68.30
10042;DHT22;5061;49.068;12.058;2023-07-02T20:31:23;19.40;68.50
10042;DHT22;5061;49.068;12.058;2023-07-02T20:34:45;19.30;68.60
10042;DHT22;5061;49.068;12.058;2023-07-02T20:38:11;19.20;68.90
10042;DHT22;5061;49.068;12.058;2023-07-02T20:41:35;19.10;69.00
10042;DHT22;5061;49.068;12.058;2023-07-02T20:44:55;19.00;69.30
10042;DHT22;5061;49.068;12.058;2023-07-02T20:48:18;18.90;69.70
10042;DHT22;5061;49.068;12.058;2023-07-02T20:51:38;18.80;69.90
10042;DHT22;5061;49.068;12.058;2023-07-02T20:54:59;18.70;70.20
10042;DHT22;5061;49.068;12.058;2023-07-02T20:58:19;18.60;70.40
10042;DHT22;5061;49.068;12.058;2023-07-02T21:01:40;18.50;70.70
10042;DHT22;5061;49.068;12.058;2023-07-02T21:05:01;18.50;71.10
10042;DHT22;5061;49.068;12.058;2023-07-02T21:08:21;18.40;71.20
10042;DHT22;5061;49.068;12.058;2023-07-02T21:11:42;18.30;71.60
10042;DHT22;5061;49.068;12.058;2023-07-02T21:15:04;18.20;71.70
10042;DHT22;5061;49.068;12.058;2023-07-02T21:18:26;18.20;71.90
10042;DHT22;5061;49.068;12.058;2023-07-02T21:21:47;18.20;72.10
10042;DHT22;5061;49.068;12.058;2023-07-02T21:25:08;18.10;72.40